sensor_id;sensor_type;location;lat;lon;timestamp;P1;durP1;ratioP1;P2;durP2;ratioP2
20443;SDS011;10381;53.730;10.010;2024-01-16T00:00:40;8.45;;;7.57;;
20443;SDS011;10381;53.730;10.010;2024-01-16T00:04:41;7.53;;;6.80;;
20443;SDS011;10381;53.730;10.010;2024-01-16T00:08:41;9.57;;;8.17;;
20443;SDS011;10381;53.730;10.010;2024-01-16T00:12:41;10.23;;;7.77;;
20443;SDS011;10381;53.730;10.010;2024-01-16T00:16:45;7.97;;;6.72;;
20443;SDS011;10381;53.730;10.010;2024-01-16T00:20:47;6.75;;;6.00;;
20443;SDS011;10381;53.730;10.010;2024-01-16T00:24:47;8.13;;;7.32;;
20443;SDS011;10381;53.730;10.010;2024-01-16T00:28:48;22.73;;;8.90;;
20443;SDS011;10381;53.730;10.010;2024-01-16T00:32:50;7.90;;;7.05;;
20443;SDS011;10381;53.730;10.010;2024-01-16T00:36:50;16.93;;;7.63;;
20443;SDS011;10381;53.730;10.010;2024-01-16T00:40:51;8.30;;;6.30;;
20443;SDS011;10381;53.730;10.010;2024-01-16T00:44:51;15.87;;;8.47;;
20443;SDS011;10381;53.730;10.010;2024-01-16T00:48:51;16.60;;;7.93;;
20443;SDS011;10381;53.730;10.010;2024-01-16T00:52:52;16.30;;;7.72;;
20443;SDS011;10381;53.730;10.010;2024-01-16T00:56:52;13.25;;;7.35;;
20443;SDS011;10381;53.730;10.010;2024-01-16T01:00:55;6.18;;;5.65;;
20443;SDS011;10381;53.730;10.010;2024-01-16T01:04:55;17.50;;;7.80;;
20443;SDS011;10381;53.730;10.010;2024-01-16T01:08:55;14.00;;;7.17;;
20443;SDS011;10381;53.730;10.010;2024-01-16T01:12:56;9.82;;;6.35;;
20443;SDS011;10381;53.730;10.010;2024-01-16T01:16:57;8.90;;;6.47;;
20443;SDS011;10381;53.730;10.010;2024-01-16T01:20:57;22.90;;;7.60;;
20443;SDS011;10381;53.730;10.010;2024-01-16T01:24:57;25.33;;;8.27;;
20443;SDS011;10381;53.730;10.010;2024-01-16T01:28:57;8.00;;;6.13;;
20443;SDS011;10381;53.730;10.010;2024-01-16T01:32:58;11.77;;;7.03;;
20443;SDS011;10381;53.730;10.010;2024-01-16T01:36:58;12.93;;;8.40;;
20443;SDS011;10381;53.730;10.010;2024-01-16T01:40:59;11.02;;;7.63;;
20443;SDS011;10381;53.730;10.010;2024-01-16T01:44:59;11.38;;;8.13;;
20443;SDS011;10381;53.730;10.010;2024-01-16T01:48:59;8.80;;;6.63;;
20443;SDS011;10381;53.730;10.010;2024-01-16T01:53:00;10.52;;;6.97;;
20443;SDS011;10381;53.730;10.010;2024-01-16T01:57:00;7.35;;;6.00;;
20443;SDS011;10381;53.730;10.010;2024-01-16T02:01:02;9.98;;;7.38;;
20443;SDS011;10381;53.730;10.010;2024-01-16T02:13:28;19.13;;;7.10;;
20443;SDS011;10381;53.730;10.010;2024-01-16T02:17:29;17.13;;;7.28;;
20443;SDS011;10381;53.730;10.010;2024-01-16T02:21:29;8.57;;;6.63;;
20443;SDS011;10381;53.730;10.010;2024-01-16T02:25:43;9.50;;;6.43;;
20443;SDS011;10381;53.730;10.010;2024-01-16T02:29:43;8.32;;;6.30;;
20443;SDS011;10381;53.730;10.010;2024-01-16T02:33:44;11.52;;;6.85;;
20443;SDS011;10381;53.730;10.010;2024-01-16T02:37:44;8.07;;;5.60;;
20443;SDS011;10381;53.730;10.010;2024-01-16T02:41:45;6.85;;;6.15;;
20443;SDS011;10381;53.730;10.010;2024-01-16T02:45:45;8.10;;;5.68;;
20443;SDS011;10381;53.730;10.010;2024-01-16T02:49:46;8.93;;;6.30;;
20443;SDS011;10381;53.730;10.010;2024-01-16T02:53:46;8.52;;;5.40;;
20443;SDS011;10381;53.730;10.010;2024-01-16T02:57:48;8.48;;;4.65;;
20443;SDS011;10381;53.730;10.010;2024-01-16T03:01:48;10.27;;;6.80;;
20443;SDS011;10381;53.730;10.010;2024-01-16T03:05:49;13.47;;;6.50;;
20443;SDS011;10381;53.730;10.010;2024-01-16T03:09:50;11.70;;;6.17;;
20443;SDS011;10381;53.730;10.010;2024-01-16T03:13:51;8.27;;;6.40;;
20443;SDS011;10381;53.730;10.010;2024-01-16T03:17:53;9.95;;;6.28;;
20443;SDS011;10381;53.730;10.010;2024-01-16T03:21:53;11.95;;;7.28;;
20443;SDS011;10381;53.730;10.010;2024-01-16T03:25:53;20.80;;;7.45;;
20443;SDS011;10381;53.730;10.010;2024-01-16T03:29:54;26.83;;;8.93;;
20443;SDS011;10381;53.730;10.010;2024-01-16T03:33:54;13.77;;;9.02;;
20443;SDS011;10381;53.730;10.010;2024-01-16T03:37:54;25.92;;;9.55;;
20443;SDS011;10381;53.730;10.010;2024-01-16T03:41:54;21.57;;;9.53;;
20443;SDS011;10381;53.730;10.010;2024-01-16T03:45:57;17.87;;;9.43;;
20443;SDS011;10381;53.730;10.010;2024-01-16T03:49:58;10.32;;;7.57;;
20443;SDS011;10381;53.730;10.010;2024-01-16T03:53:58;12.23;;;7.23;;
20443;SDS011;10381;53.730;10.010;2024-01-16T03:57:58;9.87;;;6.80;;
20443;SDS011;10381;53.730;10.010;2024-01-16T04:02:00;9.83;;;6.73;;
20443;SDS011;10381;53.730;10.010;2024-01-16T04:06:00;15.77;;;7.95;;
20443;SDS011;10381;53.730;10.010;2024-01-16T04:10:00;8.37;;;6.10;;
20443;SDS011;10381;53.730;10.010;2024-01-16T04:14:01;11.93;;;7.25;;
20443;SDS011;10381;53.730;10.010;2024-01-16T04:18:02;10.25;;;6.80;;
20443;SDS011;10381;53.730;10.010;2024-01-16T04:22:03;9.38;;;6.10;;
20443;SDS011;10381;53.730;10.010;2024-01-16T04:26:04;13.00;;;6.00;;
20443;SDS011;10381;53.730;10.010;2024-01-16T04:30:05;9.57;;;6.30;;
20443;SDS011;10381;53.730;10.010;2024-01-16T04:34:06;11.20;;;7.20;;
20443;SDS011;10381;53.730;10.010;2024-01-16T04:38:06;19.52;;;7.50;;
20443;SDS011;10381;53.730;10.010;2024-01-16T04:42:07;13.95;;;6.57;;
20443;SDS011;10381;53.730;10.010;2024-01-16T04:46:08;17.08;;;7.55;;
20443;SDS011;10381;53.730;10.010;2024-01-16T04:50:08;9.00;;;5.27;;
20443;SDS011;10381;53.730;10.010;2024-01-16T04:54:08;19.85;;;7.90;;
20443;SDS011;10381;53.730;10.010;2024-01-16T04:58:09;17.60;;;8.20;;
20443;SDS011;10381;53.730;10.010;2024-01-16T05:02:10;20.23;;;8.63;;
20443;SDS011;10381;53.730;10.010;2024-01-16T05:06:13;14.80;;;9.27;;
20443;SDS011;10381;53.730;10.010;2024-01-16T05:10:15;17.60;;;8.77;;
20443;SDS011;10381;53.730;10.010;2024-01-16T05:14:15;13.13;;;6.65;;
20443;SDS011;10381;53.730;10.010;2024-01-16T05:18:15;14.63;;;7.97;;
20443;SDS011;10381;53.730;10.010;2024-01-16T05:22:15;12.27;;;7.73;;
20443;SDS011;10381;53.730;10.010;2024-01-16T05:26:16;9.32;;;6.50;;
20443;SDS011;10381;53.730;10.010;2024-01-16T05:30:16;17.65;;;7.25;;
20443;SDS011;10381;53.730;10.010;2024-01-16T05:34:16;9.97;;;7.30;;
20443;SDS011;10381;53.730;10.010;2024-01-16T05:38:17;15.15;;;7.65;;
20443;SDS011;10381;53.730;10.010;2024-01-16T05:42:17;11.35;;;6.93;;
20443;SDS011;10381;53.730;10.010;2024-01-16T05:46:18;13.17;;;7.27;;
20443;SDS011;10381;53.730;10.010;2024-01-16T05:50:18;17.77;;;8.50;;
20443;SDS011;10381;53.730;10.010;2024-01-16T05:54:18;15.27;;;7.03;;
20443;SDS011;10381;53.730;10.010;2024-01-16T05:58:19;7.53;;;5.40;;
20443;SDS011;10381;53.730;10.010;2024-01-16T06:02:19;6.83;;;5.07;;
20443;SDS011;10381;53.730;10.010;2024-01-16T06:06:19;8.40;;;5.82;;
20443;SDS011;10381;53.730;10.010;2024-01-16T06:10:20;4.73;;;4.00;;
20443;SDS011;10381;53.730;10.010;2024-01-16T06:14:20;12.05;;;6.10;;
20443;SDS011;10381;53.730;10.010;2024-01-16T06:18:21;5.63;;;4.22;;
20443;SDS011;10381;53.730;10.010;2024-01-16T06:22:21;6.03;;;5.20;;
20443;SDS011;10381;53.730;10.010;2024-01-16T06:26:21;5.07;;;4.57;;
20443;SDS011;10381;53.730;10.010;2024-01-16T06:30:22;4.85;;;4.38;;
20443;SDS011;10381;53.730;10.010;2024-01-16T06:34:23;13.05;;;6.57;;
20443;SDS011;10381;53.730;10.010;2024-01-16T06:38:23;12.65;;;5.60;;
20443;SDS011;10381;53.730;10.010;2024-01-16T06:42:24;6.07;;;5.47;;
20443;SDS011;10381;53.730;10.010;2024-01-16T06:46:24;12.33;;;5.00;;
20443;SDS011;10381;53.730;10.010;2024-01-16T06:50:25;6.15;;;4.35;;
20443;SDS011;10381;53.730;10.010;2024-01-16T06:54:25;4.30;;;4.00;;
20443;SDS011;10381;53.730;10.010;2024-01-16T06:58:26;4.73;;;4.27;;
20443;SDS011;10381;53.730;10.010;2024-01-16T07:02:26;5.60;;;3.97;;
20443;SDS011;10381;53.730;10.010;2024-01-16T07:06:26;10.30;;;3.83;;
20443;SDS011;10381;53.730;10.010;2024-01-16T07:10:26;8.75;;;4.47;;
20443;SDS011;10381;53.730;10.010;2024-01-16T07:14:27;4.93;;;4.07;;
20443;SDS011;10381;53.730;10.010;2024-01-16T07:18:28;9.88;;;4.20;;
20443;SDS011;10381;53.730;10.010;2024-01-16T07:22:28;16.58;;;5.72;;
20443;SDS011;10381;53.730;10.010;2024-01-16T07:26:29;9.77;;;5.40;;
20443;SDS011;10381;53.730;10.010;2024-01-16T07:30:29;5.97;;;5.38;;
20443;SDS011;10381;53.730;10.010;2024-01-16T07:34:30;15.00;;;7.35;;
20443;SDS011;10381;53.730;10.010;2024-01-16T07:38:30;5.72;;;4.50;;
20443;SDS011;10381;53.730;10.010;2024-01-16T07:42:30;4.53;;;4.13;;
20443;SDS011;10381;53.730;10.010;2024-01-16T07:46:34;9.63;;;4.85;;
20443;SDS011;10381;53.730;10.010;2024-01-16T07:50:34;7.28;;;5.03;;
20443;SDS011;10381;53.730;10.010;2024-01-16T07:54:34;13.03;;;6.20;;
20443;SDS011;10381;53.730;10.010;2024-01-16T07:58:35;14.68;;;6.93;;
20443;SDS011;10381;53.730;10.010;2024-01-16T08:02:35;15.20;;;6.67;;
20443;SDS011;10381;53.730;10.010;2024-01-16T08:06:36;14.52;;;7.43;;
20443;SDS011;10381;53.730;10.010;2024-01-16T08:10:36;12.85;;;7.25;;
20443;SDS011;10381;53.730;10.010;2024-01-16T08:14:36;12.40;;;8.10;;
20443;SDS011;10381;53.730;10.010;2024-01-16T08:18:37;7.10;;;6.47;;
20443;SDS011;10381;53.730;10.010;2024-01-16T08:22:37;10.03;;;6.70;;
20443;SDS011;10381;53.730;10.010;2024-01-16T08:26:37;11.15;;;7.18;;
20443;SDS011;10381;53.730;10.010;2024-01-16T08:30:38;8.03;;;7.23;;
20443;SDS011;10381;53.730;10.010;2024-01-16T08:34:39;14.55;;;7.80;;
20443;SDS011;10381;53.730;10.010;2024-01-16T08:38:39;18.60;;;7.80;;
20443;SDS011;10381;53.730;10.010;2024-01-16T08:42:40;7.68;;;5.43;;
20443;SDS011;10381;53.730;10.010;2024-01-16T08:46:41;10.50;;;7.32;;
20443;SDS011;10381;53.730;10.010;2024-01-16T08:50:41;7.70;;;6.90;;
20443;SDS011;10381;53.730;10.010;2024-01-16T08:54:41;11.55;;;6.78;;
20443;SDS011;10381;53.730;10.010;2024-01-16T08:58:42;7.63;;;6.80;;
20443;SDS011;10381;53.730;10.010;2024-01-16T09:02:42;17.13;;;6.90;;
20443;SDS011;10381;53.730;10.010;2024-01-16T09:06:42;8.57;;;7.13;;
20443;SDS011;10381;53.730;10.010;2024-01-16T09:10:43;10.60;;;7.95;;
20443;SDS011;10381;53.730;10.010;2024-01-16T09:14:43;16.05;;;6.15;;
20443;SDS011;10381;53.730;10.010;2024-01-16T09:18:44;14.32;;;6.30;;
20443;SDS011;10381;53.730;10.010;2024-01-16T09:22:44;15.27;;;7.57;;
20443;SDS011;10381;53.730;10.010;2024-01-16T09:26:44;11.32;;;7.03;;
20443;SDS011;10381;53.730;10.010;2024-01-16T09:30:45;9.00;;;7.60;;
20443;SDS011;10381;53.730;10.010;2024-01-16T09:34:45;16.05;;;7.90;;
20443;SDS011;10381;53.730;10.010;2024-01-16T09:38:45;21.60;;;8.67;;
20443;SDS011;10381;53.730;10.010;2024-01-16T09:42:45;11.40;;;8.18;;
20443;SDS011;10381;53.730;10.010;2024-01-16T09:46:46;15.77;;;7.87;;
20443;SDS011;10381;53.730;10.010;2024-01-16T09:50:49;14.02;;;7.35;;
20443;SDS011;10381;53.730;10.010;2024-01-16T09:54:50;10.30;;;7.55;;
20443;SDS011;10381;53.730;10.010;2024-01-16T09:58:53;8.95;;;6.68;;
20443;SDS011;10381;53.730;10.010;2024-01-16T10:02:56;15.30;;;8.32;;
20443;SDS011;10381;53.730;10.010;2024-01-16T10:06:58;21.42;;;7.60;;
20443;SDS011;10381;53.730;10.010;2024-01-16T10:11:01;11.30;;;6.70;;
20443;SDS011;10381;53.730;10.010;2024-01-16T10:15:01;12.93;;;6.28;;
20443;SDS011;10381;53.730;10.010;2024-01-16T10:19:04;9.45;;;6.40;;
20443;SDS011;10381;53.730;10.010;2024-01-16T10:23:05;14.43;;;8.00;;
20443;SDS011;10381;53.730;10.010;2024-01-16T10:27:05;22.07;;;8.47;;
20443;SDS011;10381;53.730;10.010;2024-01-16T10:31:09;24.08;;;10.85;;
20443;SDS011;10381;53.730;10.010;2024-01-16T10:35:11;88.60;;;34.47;;
20443;SDS011;10381;53.730;10.010;2024-01-16T10:39:13;39.08;;;15.98;;
20443;SDS011;10381;53.730;10.010;2024-01-16T10:43:14;9.90;;;6.10;;
20443;SDS011;10381;53.730;10.010;2024-01-16T10:47:17;49.65;;;22.80;;
20443;SDS011;10381;53.730;10.010;2024-01-16T10:51:18;21.02;;;9.73;;
20443;SDS011;10381;53.730;10.010;2024-01-16T10:55:19;48.30;;;6.72;;
20443;SDS011;10381;53.730;10.010;2024-01-16T10:59:24;10.18;;;6.68;;
20443;SDS011;10381;53.730;10.010;2024-01-16T11:03:30;16.15;;;7.80;;
20443;SDS011;10381;53.730;10.010;2024-01-16T11:07:47;8.35;;;6.38;;
20443;SDS011;10381;53.730;10.010;2024-01-16T11:11:48;10.27;;;6.18;;
20443;SDS011;10381;53.730;10.010;2024-01-16T11:15:51;17.15;;;9.65;;
20443;SDS011;10381;53.730;10.010;2024-01-16T11:19:53;12.52;;;8.50;;
20443;SDS011;10381;53.730;10.010;2024-01-16T11:23:53;11.73;;;7.78;;
20443;SDS011;10381;53.730;10.010;2024-01-16T11:27:54;15.43;;;10.40;;
20443;SDS011;10381;53.730;10.010;2024-01-16T11:32:07;18.05;;;10.02;;
20443;SDS011;10381;53.730;10.010;2024-01-16T11:36:32;14.60;;;10.27;;
20443;SDS011;10381;53.730;10.010;2024-01-16T11:40:47;15.93;;;11.55;;
20443;SDS011;10381;53.730;10.010;2024-01-16T11:44:48;21.52;;;9.07;;
20443;SDS011;10381;53.730;10.010;2024-01-16T11:49:01;15.88;;;14.35;;
20443;SDS011;10381;53.730;10.010;2024-01-16T11:53:03;47.13;;;42.97;;
20443;SDS011;10381;53.730;10.010;2024-01-16T12:01:35;40.33;;;36.63;;
20443;SDS011;10381;53.730;10.010;2024-01-16T12:05:36;38.58;;;34.15;;
20443;SDS011;10381;53.730;10.010;2024-01-16T12:09:36;35.17;;;32.13;;
20443;SDS011;10381;53.730;10.010;2024-01-16T12:13:36;40.33;;;36.70;;
20443;SDS011;10381;53.730;10.010;2024-01-16T12:17:37;33.53;;;30.23;;
20443;SDS011;10381;53.730;10.010;2024-01-16T12:21:44;38.50;;;31.98;;
20443;SDS011;10381;53.730;10.010;2024-01-16T12:25:46;32.55;;;29.23;;
20443;SDS011;10381;53.730;10.010;2024-01-16T12:29:47;33.70;;;30.38;;
20443;SDS011;10381;53.730;10.010;2024-01-16T12:33:47;30.58;;;27.85;;
20443;SDS011;10381;53.730;10.010;2024-01-16T12:37:57;31.27;;;28.07;;
20443;SDS011;10381;53.730;10.010;2024-01-16T12:41:58;30.23;;;27.05;;
20443;SDS011;10381;53.730;10.010;2024-01-16T12:45:59;23.20;;;20.80;;
20443;SDS011;10381;53.730;10.010;2024-01-16T12:50:00;20.25;;;18.38;;
20443;SDS011;10381;53.730;10.010;2024-01-16T12:54:10;27.10;;;17.65;;
20443;SDS011;10381;53.730;10.010;2024-01-16T12:58:19;17.10;;;13.55;;
20443;SDS011;10381;53.730;10.010;2024-01-16T13:02:21;22.55;;;14.50;;
20443;SDS011;10381;53.730;10.010;2024-01-16T13:06:22;17.45;;;11.27;;
20443;SDS011;10381;53.730;10.010;2024-01-16T13:10:23;10.38;;;8.73;;
20443;SDS011;10381;53.730;10.010;2024-01-16T13:14:23;28.97;;;13.40;;
20443;SDS011;10381;53.730;10.010;2024-01-16T13:18:25;32.45;;;12.43;;
20443;SDS011;10381;53.730;10.010;2024-01-16T13:22:29;10.85;;;8.07;;
20443;SDS011;10381;53.730;10.010;2024-01-16T13:26:29;16.08;;;11.50;;
20443;SDS011;10381;53.730;10.010;2024-01-16T13:30:30;29.95;;;11.45;;
20443;SDS011;10381;53.730;10.010;2024-01-16T13:34:30;24.55;;;9.63;;
20443;SDS011;10381;53.730;10.010;2024-01-16T13:38:31;25.08;;;12.23;;
20443;SDS011;10381;53.730;10.010;2024-01-16T13:42:31;19.70;;;8.73;;
20443;SDS011;10381;53.730;10.010;2024-01-16T13:46:33;19.00;;;10.17;;
20443;SDS011;10381;53.730;10.010;2024-01-16T13:50:34;13.75;;;9.30;;
20443;SDS011;10381;53.730;10.010;2024-01-16T13:54:36;19.27;;;8.98;;
20443;SDS011;10381;53.730;10.010;2024-01-16T13:58:37;18.35;;;9.85;;
20443;SDS011;10381;53.730;10.010;2024-01-16T14:02:37;15.43;;;7.93;;
20443;SDS011;10381;53.730;10.010;2024-01-16T14:06:38;87.70;;;26.25;;
20443;SDS011;10381;53.730;10.010;2024-01-16T14:10:38;32.40;;;16.87;;
20443;SDS011;10381;53.730;10.010;2024-01-16T14:14:42;8.10;;;6.25;;
20443;SDS011;10381;53.730;10.010;2024-01-16T14:18:42;12.52;;;7.60;;
20443;SDS011;10381;53.730;10.010;2024-01-16T14:22:43;8.02;;;5.95;;
20443;SDS011;10381;53.730;10.010;2024-01-16T14:26:44;8.50;;;6.93;;
20443;SDS011;10381;53.730;10.010;2024-01-16T14:30:45;21.52;;;11.07;;
20443;SDS011;10381;53.730;10.010;2024-01-16T14:34:46;9.95;;;6.65;;
20443;SDS011;10381;53.730;10.010;2024-01-16T14:38:49;7.07;;;6.40;;
20443;SDS011;10381;53.730;10.010;2024-01-16T14:42:51;17.88;;;8.32;;
20443;SDS011;10381;53.730;10.010;2024-01-16T14:46:59;31.08;;;9.98;;
20443;SDS011;10381;53.730;10.010;2024-01-16T14:51:05;17.48;;;9.18;;
20443;SDS011;10381;53.730;10.010;2024-01-16T14:55:06;16.85;;;8.00;;
20443;SDS011;10381;53.730;10.010;2024-01-16T14:59:09;10.65;;;6.82;;
20443;SDS011;10381;53.730;10.010;2024-01-16T15:03:10;10.82;;;7.40;;
20443;SDS011;10381;53.730;10.010;2024-01-16T15:07:13;15.60;;;9.40;;
20443;SDS011;10381;53.730;10.010;2024-01-16T15:11:15;21.30;;;10.68;;
20443;SDS011;10381;53.730;10.010;2024-01-16T15:19:43;16.13;;;6.05;;
20443;SDS011;10381;53.730;10.010;2024-01-16T15:23:43;17.60;;;7.40;;
20443;SDS011;10381;53.730;10.010;2024-01-16T15:27:44;16.52;;;7.63;;
20443;SDS011;10381;53.730;10.010;2024-01-16T15:31:45;8.30;;;6.18;;
20443;SDS011;10381;53.730;10.010;2024-01-16T15:35:46;18.20;;;7.18;;
20443;SDS011;10381;53.730;10.010;2024-01-16T15:39:47;8.75;;;5.90;;
20443;SDS011;10381;53.730;10.010;2024-01-16T15:43:47;14.07;;;7.07;;
20443;SDS011;10381;53.730;10.010;2024-01-16T15:47:48;6.30;;;5.20;;
20443;SDS011;10381;53.730;10.010;2024-01-16T15:51:48;21.48;;;6.15;;
20443;SDS011;10381;53.730;10.010;2024-01-16T15:55:49;10.85;;;6.40;;
20443;SDS011;10381;53.730;10.010;2024-01-16T15:59:49;7.05;;;5.43;;
20443;SDS011;10381;53.730;10.010;2024-01-16T16:03:49;7.83;;;5.77;;
20443;SDS011;10381;53.730;10.010;2024-01-16T16:07:49;10.05;;;5.90;;
20443;SDS011;10381;53.730;10.010;2024-01-16T16:11:50;12.63;;;5.63;;
20443;SDS011;10381;53.730;10.010;2024-01-16T16:15:51;21.02;;;8.48;;
20443;SDS011;10381;53.730;10.010;2024-01-16T16:19:51;16.80;;;6.70;;
20443;SDS011;10381;53.730;10.010;2024-01-16T16:23:52;12.70;;;7.90;;
20443;SDS011;10381;53.730;10.010;2024-01-16T16:27:56;7.63;;;6.13;;
20443;SDS011;10381;53.730;10.010;2024-01-16T16:31:56;11.03;;;6.73;;
20443;SDS011;10381;53.730;10.010;2024-01-16T16:35:58;14.93;;;6.70;;
20443;SDS011;10381;53.730;10.010;2024-01-16T16:39:58;14.77;;;7.63;;
20443;SDS011;10381;53.730;10.010;2024-01-16T16:43:59;15.43;;;7.47;;
20443;SDS011;10381;53.730;10.010;2024-01-16T16:47:59;11.30;;;7.63;;
20443;SDS011;10381;53.730;10.010;2024-01-16T16:52:00;11.00;;;7.10;;
20443;SDS011;10381;53.730;10.010;2024-01-16T16:56:00;9.90;;;7.55;;
20443;SDS011;10381;53.730;10.010;2024-01-16T17:00:00;13.20;;;8.10;;
20443;SDS011;10381;53.730;10.010;2024-01-16T17:04:01;24.70;;;8.30;;
20443;SDS011;10381;53.730;10.010;2024-01-16T17:08:01;12.10;;;9.13;;
20443;SDS011;10381;53.730;10.010;2024-01-16T17:12:01;16.02;;;8.85;;
20443;SDS011;10381;53.730;10.010;2024-01-16T17:16:02;23.05;;;7.85;;
20443;SDS011;10381;53.730;10.010;2024-01-16T17:20:03;10.85;;;7.85;;
20443;SDS011;10381;53.730;10.010;2024-01-16T17:24:03;10.80;;;7.88;;
20443;SDS011;10381;53.730;10.010;2024-01-16T17:28:04;12.68;;;8.43;;
20443;SDS011;10381;53.730;10.010;2024-01-16T17:32:05;17.52;;;9.13;;
20443;SDS011;10381;53.730;10.010;2024-01-16T17:36:05;18.38;;;8.48;;
20443;SDS011;10381;53.730;10.010;2024-01-16T17:40:11;13.77;;;7.70;;
20443;SDS011;10381;53.730;10.010;2024-01-16T17:44:14;13.70;;;7.95;;
20443;SDS011;10381;53.730;10.010;2024-01-16T17:48:14;22.65;;;9.55;;
20443;SDS011;10381;53.730;10.010;2024-01-16T17:52:14;18.60;;;10.25;;
20443;SDS011;10381;53.730;10.010;2024-01-16T17:56:15;16.17;;;10.10;;
20443;SDS011;10381;53.730;10.010;2024-01-16T18:00:17;18.40;;;10.20;;
20443;SDS011;10381;53.730;10.010;2024-01-16T18:04:17;24.73;;;13.68;;
20443;SDS011;10381;53.730;10.010;2024-01-16T18:08:17;21.80;;;11.03;;
20443;SDS011;10381;53.730;10.010;2024-01-16T18:12:18;23.60;;;13.80;;
20443;SDS011;10381;53.730;10.010;2024-01-16T18:16:18;23.83;;;14.13;;
20443;SDS011;10381;53.730;10.010;2024-01-16T18:20:19;32.72;;;12.60;;
20443;SDS011;10381;53.730;10.010;2024-01-16T18:24:21;22.38;;;13.13;;
20443;SDS011;10381;53.730;10.010;2024-01-16T18:28:22;35.80;;;13.40;;
20443;SDS011;10381;53.730;10.010;2024-01-16T18:32:23;46.05;;;16.08;;
20443;SDS011;10381;53.730;10.010;2024-01-16T18:36:23;45.07;;;21.03;;
20443;SDS011;10381;53.730;10.010;2024-01-16T18:40:26;30.38;;;16.02;;
20443;SDS011;10381;53.730;10.010;2024-01-16T18:44:26;50.75;;;22.17;;
20443;SDS011;10381;53.730;10.010;2024-01-16T18:48:27;39.20;;;18.60;;
20443;SDS011;10381;53.730;10.010;2024-01-16T18:52:29;24.90;;;14.23;;
20443;SDS011;10381;53.730;10.010;2024-01-16T18:56:29;34.00;;;16.63;;
20443;SDS011;10381;53.730;10.010;2024-01-16T19:00:30;33.35;;;18.27;;
20443;SDS011;10381;53.730;10.010;2024-01-16T19:04:30;38.40;;;21.95;;
20443;SDS011;10381;53.730;10.010;2024-01-16T19:08:32;41.72;;;20.08;;
20443;SDS011;10381;53.730;10.010;2024-01-16T19:12:32;55.05;;;20.33;;
20443;SDS011;10381;53.730;10.010;2024-01-16T19:16:34;36.58;;;19.25;;
20443;SDS011;10381;53.730;10.010;2024-01-16T19:20:34;29.50;;;14.30;;
20443;SDS011;10381;53.730;10.010;2024-01-16T19:24:34;54.23;;;23.23;;
20443;SDS011;10381;53.730;10.010;2024-01-16T19:28:36;44.45;;;21.33;;
20443;SDS011;10381;53.730;10.010;2024-01-16T19:32:36;36.88;;;17.38;;
20443;SDS011;10381;53.730;10.010;2024-01-16T19:36:36;28.43;;;14.53;;
20443;SDS011;10381;53.730;10.010;2024-01-16T19:40:37;44.97;;;19.70;;
20443;SDS011;10381;53.730;10.010;2024-01-16T19:44:37;31.30;;;15.23;;
20443;SDS011;10381;53.730;10.010;2024-01-16T19:48:37;33.15;;;16.83;;
20443;SDS011;10381;53.730;10.010;2024-01-16T19:52:38;46.00;;;16.02;;
20443;SDS011;10381;53.730;10.010;2024-01-16T19:56:39;32.83;;;15.93;;
20443;SDS011;10381;53.730;10.010;2024-01-16T20:00:39;29.70;;;15.60;;
20443;SDS011;10381;53.730;10.010;2024-01-16T20:04:39;34.65;;;17.90;;
20443;SDS011;10381;53.730;10.010;2024-01-16T20:08:40;30.23;;;14.35;;
20443;SDS011;10381;53.730;10.010;2024-01-16T20:12:41;32.65;;;15.10;;
20443;SDS011;10381;53.730;10.010;2024-01-16T20:16:42;34.72;;;16.70;;
20443;SDS011;10381;53.730;10.010;2024-01-16T20:20:43;38.53;;;17.48;;
20443;SDS011;10381;53.730;10.010;2024-01-16T20:24:43;26.02;;;13.73;;
20443;SDS011;10381;53.730;10.010;2024-01-16T20:28:47;23.42;;;12.25;;
20443;SDS011;10381;53.730;10.010;2024-01-16T20:32:51;23.73;;;12.93;;
20443;SDS011;10381;53.730;10.010;2024-01-16T20:36:51;29.53;;;16.87;;
20443;SDS011;10381;53.730;10.010;2024-01-16T20:40:58;31.30;;;14.10;;
20443;SDS011;10381;53.730;10.010;2024-01-16T20:44:58;23.87;;;12.07;;
20443;SDS011;10381;53.730;10.010;2024-01-16T20:48:58;20.57;;;11.80;;
20443;SDS011;10381;53.730;10.010;2024-01-16T20:53:01;25.65;;;12.63;;
20443;SDS011;10381;53.730;10.010;2024-01-16T20:57:01;38.80;;;16.95;;
20443;SDS011;10381;53.730;10.010;2024-01-16T21:01:02;25.13;;;13.05;;
20443;SDS011;10381;53.730;10.010;2024-01-16T21:05:02;26.20;;;12.77;;
20443;SDS011;10381;53.730;10.010;2024-01-16T21:09:03;30.20;;;14.68;;
20443;SDS011;10381;53.730;10.010;2024-01-16T21:13:03;43.55;;;18.08;;
20443;SDS011;10381;53.730;10.010;2024-01-16T21:17:04;27.40;;;12.93;;
20443;SDS011;10381;53.730;10.010;2024-01-16T21:21:07;29.08;;;13.23;;
20443;SDS011;10381;53.730;10.010;2024-01-16T21:25:07;25.88;;;14.25;;
20443;SDS011;10381;53.730;10.010;2024-01-16T21:29:08;45.17;;;17.35;;
20443;SDS011;10381;53.730;10.010;2024-01-16T21:33:08;39.83;;;14.73;;
20443;SDS011;10381;53.730;10.010;2024-01-16T21:37:10;34.30;;;15.02;;
20443;SDS011;10381;53.730;10.010;2024-01-16T21:41:10;35.75;;;15.07;;
20443;SDS011;10381;53.730;10.010;2024-01-16T21:45:12;28.77;;;13.55;;
20443;SDS011;10381;53.730;10.010;2024-01-16T21:49:12;34.72;;;14.20;;
20443;SDS011;10381;53.730;10.010;2024-01-16T21:53:12;31.30;;;14.02;;
20443;SDS011;10381;53.730;10.010;2024-01-16T21:57:13;29.97;;;13.07;;
20443;SDS011;10381;53.730;10.010;2024-01-16T22:01:13;46.20;;;18.23;;
20443;SDS011;10381;53.730;10.010;2024-01-16T22:05:13;38.33;;;15.45;;
20443;SDS011;10381;53.730;10.010;2024-01-16T22:09:14;27.55;;;13.93;;
20443;SDS011;10381;53.730;10.010;2024-01-16T22:13:17;24.40;;;10.95;;
20443;SDS011;10381;53.730;10.010;2024-01-16T22:17:18;18.98;;;9.45;;
20443;SDS011;10381;53.730;10.010;2024-01-16T22:21:18;28.77;;;14.43;;
20443;SDS011;10381;53.730;10.010;2024-01-16T22:25:20;33.15;;;14.13;;
20443;SDS011;10381;53.730;10.010;2024-01-16T22:29:20;26.67;;;13.35;;
20443;SDS011;10381;53.730;10.010;2024-01-16T22:33:20;31.80;;;13.70;;
20443;SDS011;10381;53.730;10.010;2024-01-16T22:37:21;28.73;;;13.32;;
20443;SDS011;10381;53.730;10.010;2024-01-16T22:41:25;31.77;;;13.05;;
20443;SDS011;10381;53.730;10.010;2024-01-16T22:45:28;26.92;;;11.27;;
20443;SDS011;10381;53.730;10.010;2024-01-16T22:49:28;31.63;;;15.83;;
20443;SDS011;10381;53.730;10.010;2024-01-16T22:53:28;23.75;;;11.43;;
20443;SDS011;10381;53.730;10.010;2024-01-16T22:57:29;34.40;;;14.52;;
20443;SDS011;10381;53.730;10.010;2024-01-16T23:01:29;24.98;;;12.65;;
20443;SDS011;10381;53.730;10.010;2024-01-16T23:05:30;33.55;;;15.70;;
20443;SDS011;10381;53.730;10.010;2024-01-16T23:09:31;29.20;;;15.73;;
20443;SDS011;10381;53.730;10.010;2024-01-16T23:13:33;34.67;;;13.90;;
20443;SDS011;10381;53.730;10.010;2024-01-16T23:17:34;26.52;;;11.95;;
20443;SDS011;10381;53.730;10.010;2024-01-16T23:21:34;24.03;;;12.60;;
20443;SDS011;10381;53.730;10.010;2024-01-16T23:25:35;37.93;;;13.13;;
20443;SDS011;10381;53.730;10.010;2024-01-16T23:29:35;33.10;;;15.02;;
20443;SDS011;10381;53.730;10.010;2024-01-16T23:33:36;27.20;;;13.38;;
20443;SDS011;10381;53.730;10.010;2024-01-16T23:37:36;31.37;;;14.53;;
20443;SDS011;10381;53.730;10.010;2024-01-16T23:41:41;21.83;;;12.40;;
20443;SDS011;10381;53.730;10.010;2024-01-16T23:45:41;40.92;;;16.17;;